sensor_id;sensor_type;location;lat;lon;timestamp;temperature;humidity
38239;DHT22;24035;48.900;9.188;2023-06-10T00:02:04;16.70;1.00
38239;DHT22;24035;48.900;9.188;2023-06-10T00:04:30;16.70;1.00
38239;DHT22;24035;48.900;9.188;2023-06-10T00:06:56;16.60;1.00
38239;DHT22;24035;48.900;9.188;2023-06-10T00:09:23;16.60;1.00
38239;DHT22;24035;48.900;9.188;2023-06-10T00:11:48;16.60;1.00
38239;DHT22;24035;48.900;9.188;2023-06-10T00:14:15;16.50;1.00
38239;DHT22;24035;48.900;9.188;2023-06-10T00:16:41;16.50;1.00
38239;DHT22;24035;48.900;9.188;2023-06-10T00:19:11;16.60;1.00
38239;DHT22;24035;48.900;9.188;2023-06-10T00:21:39;16.50;1.00
38239;DHT22;24035;48.900;9.188;2023-06-10T00:24:09;16.40;1.00
38239;DHT22;24035;48.900;9.188;2023-06-10T00:26:41;16.40;1.00
38239;DHT22;24035;48.900;9.188;2023-06-10T00:29:07;16.40;1.00
38239;DHT22;24035;48.900;9.188;2023-06-10T00:31:37;16.30;1.00
38239;DHT22;24035;48.900;9.188;2023-06-10T00:34:03;16.30;1.00
38239;DHT22;24035;48.900;9.188;2023-06-10T00:36:29;16.30;1.00
38239;DHT22;24035;48.900;9.188;2023-06-10T00:38:56;16.20;1.00
38239;DHT22;24035;48.900;9.188;2023-06-10T00:41:23;16.20;1.00
38239;DHT22;24035;48.900;9.188;2023-06-10T00:43:48;16.10;1.00
38239;DHT22;24035;48.900;9.188;2023-06-10T00:46:14;15.90;1.00
38239;DHT22;24035;48.900;9.188;2023-06-10T00:48:42;15.90;1.00
38239;DHT22;24035;48.900;9.188;2023-06-10T00:51:09;16.00;1.00
38239;DHT22;24035;48.900;9.188;2023-06-10T00:53:37;15.90;1.00
38239;DHT22;24035;48.900;9.188;2023-06-10T00:56:04;15.80;3.70
38239;DHT22;24035;48.900;9.188;2023-06-10T00:58:30;15.70;1.00
38239;DHT22;24035;48.900;9.188;2023-06-10T01:00:56;15.70;92.60
38239;DHT22;24035;48.900;9.188;2023-06-10T01:03:23;15.70;99.90
38239;DHT22;24035;48.900;9.188;2023-06-10T01:05:57;15.50;99.90
38239;DHT22;24035;48.900;9.188;2023-06-10T01:08:39;15.50;99.90
38239;DHT22;24035;48.900;9.188;2023-06-10T01:11:10;15.70;99.90
38239;DHT22;24035;48.900;9.188;2023-06-10T01:13:40;15.60;99.90
38239;DHT22;24035;48.900;9.188;2023-06-10T01:16:07;15.40;99.90
38239;DHT22;24035;48.900;9.188;2023-06-10T01:18:33;15.40;99.90
38239;DHT22;24035;48.900;9.188;2023-06-10T01:20:59;15.30;1.00
38239;DHT22;24035;48.900;9.188;2023-06-10T01:23:25;15.30;1.00
38239;DHT22;24035;48.900;9.188;2023-06-10T01:26:00;15.30;1.00
38239;DHT22;24035;48.900;9.188;2023-06-10T01:28:47;15.20;1.00
38239;DHT22;24035;48.900;9.188;2023-06-10T01:33:49;15.20;1.00
38239;DHT22;24035;48.900;9.188;2023-06-10T01:36:18;15.10;1.00
38239;DHT22;24035;48.900;9.188;2023-06-10T01:38:46;14.90;1.00
38239;DHT22;24035;48.900;9.188;2023-06-10T01:41:14;14.90;1.00
38239;DHT22;24035;48.900;9.188;2023-06-10T01:43:43;14.90;1.00
38239;DHT22;24035;48.900;9.188;2023-06-10T01:46:10;14.90;1.00
38239;DHT22;24035;48.900;9.188;2023-06-10T01:48:37;14.90;1.00
38239;DHT22;24035;48.900;9.188;2023-06-10T01:51:04;14.90;1.00
38239;DHT22;24035;48.900;9.188;2023-06-10T01:53:30;14.90;1.00
38239;DHT22;24035;48.900;9.188;2023-06-10T01:55:56;14.80;1.00
38239;DHT22;24035;48.900;9.188;2023-06-10T01:58:21;14.80;1.00
38239;DHT22;24035;48.900;9.188;2023-06-10T02:00:48;14.80;1.00
38239;DHT22;24035;48.900;9.188;2023-06-10T02:03:14;14.60;1.00
38239;DHT22;24035;48.900;9.188;2023-06-10T02:05:39;14.60;1.00
38239;DHT22;24035;48.900;9.188;2023-06-10T02:08:05;14.50;1.00
38239;DHT22;24035;48.900;9.188;2023-06-10T02:10:31;14.40;76.20
38239;DHT22;24035;48.900;9.188;2023-06-10T02:12:57;14.30;17.60
38239;DHT22;24035;48.900;9.188;2023-06-10T02:15:24;14.30;1.50
38239;DHT22;24035;48.900;9.188;2023-06-10T02:17:50;14.30;99.90
38239;DHT22;24035;48.900;9.188;2023-06-10T02:20:16;14.30;1.00
38239;DHT22;24035;48.900;9.188;2023-06-10T02:22:41;14.50;99.90
38239;DHT22;24035;48.900;9.188;2023-06-10T02:25:08;14.40;1.00
38239;DHT22;24035;48.900;9.188;2023-06-10T02:27:34;14.40;1.00
38239;DHT22;24035;48.900;9.188;2023-06-10T02:30:00;14.40;1.70
38239;DHT22;24035;48.900;9.188;2023-06-10T02:32:25;14.40;1.00
38239;DHT22;24035;48.900;9.188;2023-06-10T02:34:51;14.40;1.00
38239;DHT22;24035;48.900;9.188;2023-06-10T02:37:18;14.30;1.00
38239;DHT22;24035;48.900;9.188;2023-06-10T02:39:44;14.30;1.00
38239;DHT22;24035;48.900;9.188;2023-06-10T02:42:10;14.30;45.00
38239;DHT22;24035;48.900;9.188;2023-06-10T02:44:36;14.30;99.90
38239;DHT22;24035;48.900;9.188;2023-06-10T02:47:02;14.30;99.90
38239;DHT22;24035;48.900;9.188;2023-06-10T02:49:28;14.20;99.90
38239;DHT22;24035;48.900;9.188;2023-06-10T02:51:54;14.20;1.00
38239;DHT22;24035;48.900;9.188;2023-06-10T02:54:20;14.10;1.00
38239;DHT22;24035;48.900;9.188;2023-06-10T02:56:46;14.20;99.90
38239;DHT22;24035;48.900;9.188;2023-06-10T02:59:14;14.20;99.90
38239;DHT22;24035;48.900;9.188;2023-06-10T03:01:40;14.20;99.90
38239;DHT22;24035;48.900;9.188;2023-06-10T03:04:06;14.30;43.10
38239;DHT22;24035;48.900;9.188;2023-06-10T03:06:32;14.20;8.40
38239;DHT22;24035;48.900;9.188;2023-06-10T03:09:01;14.30;1.00
38239;DHT22;24035;48.900;9.188;2023-06-10T03:11:29;14.30;1.00
38239;DHT22;24035;48.900;9.188;2023-06-10T03:13:56;14.30;1.00
38239;DHT22;24035;48.900;9.188;2023-06-10T03:16:22;14.30;1.00
38239;DHT22;24035;48.900;9.188;2023-06-10T03:18:51;14.30;1.00
38239;DHT22;24035;48.900;9.188;2023-06-10T03:21:16;14.40;1.00
38239;DHT22;24035;48.900;9.188;2023-06-10T03:23:42;14.30;11.00
38239;DHT22;24035;48.900;9.188;2023-06-10T03:26:08;14.30;99.90
38239;DHT22;24035;48.900;9.188;2023-06-10T03:28:35;14.30;99.90
38239;DHT22;24035;48.900;9.188;2023-06-10T03:31:01;14.30;99.90
38239;DHT22;24035;48.900;9.188;2023-06-10T03:33:27;14.40;28.60
38239;DHT22;24035;48.900;9.188;2023-06-10T03:35:52;14.50;1.00
38239;DHT22;24035;48.900;9.188;2023-06-10T03:38:19;14.50;1.00
38239;DHT22;24035;48.900;9.188;2023-06-10T03:40:44;14.50;1.00
38239;DHT22;24035;48.900;9.188;2023-06-10T03:43:10;14.50;1.00
38239;DHT22;24035;48.900;9.188;2023-06-10T03:45:36;14.60;99.90
38239;DHT22;24035;48.900;9.188;2023-06-10T03:48:02;15.10;99.90
38239;DHT22;24035;48.900;9.188;2023-06-10T03:50:29;15.70;1.00
38239;DHT22;24035;48.900;9.188;2023-06-10T03:52:55;16.40;51.30
38239;DHT22;24035;48.900;9.188;2023-06-10T03:55:20;17.00;1.00
38239;DHT22;24035;48.900;9.188;2023-06-10T03:57:48;17.50;1.00
38239;DHT22;24035;48.900;9.188;2023-06-10T04:00:15;18.30;99.90
38239;DHT22;24035;48.900;9.188;2023-06-10T04:02:41;18.80;22.40
38239;DHT22;24035;48.900;9.188;2023-06-10T04:05:18;19.40;1.00
38239;DHT22;24035;48.900;9.188;2023-06-10T04:07:44;19.80;1.00
38239;DHT22;24035;48.900;9.188;2023-06-10T04:10:13;20.30;1.00
38239;DHT22;24035;48.900;9.188;2023-06-10T04:12:39;20.70;1.00
38239;DHT22;24035;48.900;9.188;2023-06-10T04:15:06;21.00;99.90
38239;DHT22;24035;48.900;9.188;2023-06-10T04:17:32;21.40;99.90
38239;DHT22;24035;48.900;9.188;2023-06-10T04:19:58;21.50;99.90
38239;DHT22;24035;48.900;9.188;2023-06-10T04:22:24;21.70;99.90
38239;DHT22;24035;48.900;9.188;2023-06-10T04:24:50;22.00;99.90
38239;DHT22;24035;48.900;9.188;2023-06-10T04:27:15;22.10;99.90
38239;DHT22;24035;48.900;9.188;2023-06-10T04:29:41;22.50;99.90
38239;DHT22;24035;48.900;9.188;2023-06-10T04:32:07;22.90;99.90
38239;DHT22;24035;48.900;9.188;2023-06-10T04:34:33;23.10;99.90
38239;DHT22;24035;48.900;9.188;2023-06-10T04:36:59;23.20;99.90
38239;DHT22;24035;48.900;9.188;2023-06-10T04:39:25;23.50;99.90
38239;DHT22;24035;48.900;9.188;2023-06-10T04:41:51;23.80;99.90
38239;DHT22;24035;48.900;9.188;2023-06-10T04:44:17;23.80;99.90
38239;DHT22;24035;48.900;9.188;2023-06-10T04:46:44;24.30;99.90
38239;DHT22;24035;48.900;9.188;2023-06-10T04:49:11;24.20;99.90
38239;DHT22;24035;48.900;9.188;2023-06-10T04:51:39;24.50;99.90
38239;DHT22;24035;48.900;9.188;2023-06-10T04:54:05;24.80;99.90
38239;DHT22;24035;48.900;9.188;2023-06-10T04:56:32;25.20;99.90
38239;DHT22;24035;48.900;9.188;2023-06-10T04:58:58;25.70;99.90
38239;DHT22;24035;48.900;9.188;2023-06-10T05:01:24;26.10;99.90
38239;DHT22;24035;48.900;9.188;2023-06-10T05:03:50;25.50;99.90
38239;DHT22;24035;48.900;9.188;2023-06-10T05:06:15;25.60;99.90
38239;DHT22;24035;48.900;9.188;2023-06-10T05:08:41;25.70;99.90
38239;DHT22;24035;48.900;9.188;2023-06-10T05:11:07;26.00;99.90
38239;DHT22;24035;48.900;9.188;2023-06-10T05:13:32;25.90;99.90
38239;DHT22;24035;48.900;9.188;2023-06-10T05:15:59;26.40;99.90
38239;DHT22;24035;48.900;9.188;2023-06-10T05:18:24;26.10;99.90
38239;DHT22;24035;48.900;9.188;2023-06-10T05:20:50;26.40;99.90
38239;DHT22;24035;48.900;9.188;2023-06-10T05:23:16;26.00;99.90
38239;DHT22;24035;48.900;9.188;2023-06-10T05:25:42;26.00;99.90
38239;DHT22;24035;48.900;9.188;2023-06-10T05:28:08;26.00;99.90
38239;DHT22;24035;48.900;9.188;2023-06-10T05:30:37;26.50;99.90
38239;DHT22;24035;48.900;9.188;2023-06-10T05:33:04;26.60;99.90
38239;DHT22;24035;48.900;9.188;2023-06-10T05:35:30;27.00;99.90
38239;DHT22;24035;48.900;9.188;2023-06-10T05:37:56;26.50;99.90
38239;DHT22;24035;48.900;9.188;2023-06-10T05:40:22;27.00;99.90
38239;DHT22;24035;48.900;9.188;2023-06-10T05:42:48;28.00;99.90
38239;DHT22;24035;48.900;9.188;2023-06-10T05:45:14;28.90;99.40
38239;DHT22;24035;48.900;9.188;2023-06-10T05:47:40;29.00;98.10
38239;DHT22;24035;48.900;9.188;2023-06-10T05:50:06;29.20;98.10
38239;DHT22;24035;48.900;9.188;2023-06-10T05:52:35;29.40;30.90
38239;DHT22;24035;48.900;9.188;2023-06-10T05:55:01;29.50;29.90
38239;DHT22;24035;48.900;9.188;2023-06-10T05:57:27;29.40;28.30
38239;DHT22;24035;48.900;9.188;2023-06-10T05:59:52;29.60;28.70
38239;DHT22;24035;48.900;9.188;2023-06-10T06:02:18;29.70;26.20
38239;DHT22;24035;48.900;9.188;2023-06-10T06:04:44;30.00;47.50
38239;DHT22;24035;48.900;9.188;2023-06-10T06:07:09;30.50;24.60
38239;DHT22;24035;48.900;9.188;2023-06-10T06:09:35;30.80;24.60
38239;DHT22;24035;48.900;9.188;2023-06-10T06:12:01;30.40;23.30
38239;DHT22;24035;48.900;9.188;2023-06-10T06:14:30;30.80;24.90
38239;DHT22;24035;48.900;9.188;2023-06-10T06:16:56;31.40;29.60
38239;DHT22;24035;48.900;9.188;2023-06-10T06:19:22;31.70;32.00
38239;DHT22;24035;48.900;9.188;2023-06-10T06:21:47;32.00;33.40
38239;DHT22;24035;48.900;9.188;2023-06-10T06:24:15;32.10;28.20
38239;DHT22;24035;48.900;9.188;2023-06-10T06:26:41;32.10;28.20
38239;DHT22;24035;48.900;9.188;2023-06-10T06:29:06;31.90;26.50
38239;DHT22;24035;48.900;9.188;2023-06-10T06:31:32;31.50;26.90
38239;DHT22;24035;48.900;9.188;2023-06-10T06:33:58;31.50;24.20
38239;DHT22;24035;48.900;9.188;2023-06-10T06:36:23;31.70;26.20
38239;DHT22;24035;48.900;9.188;2023-06-10T06:38:49;30.90;24.60
38239;DHT22;24035;48.900;9.188;2023-06-10T06:41:15;30.60;23.50
38239;DHT22;24035;48.900;9.188;2023-06-10T06:43:41;30.80;25.20
38239;DHT22;24035;48.900;9.188;2023-06-10T06:46:08;31.10;27.80
38239;DHT22;24035;48.900;9.188;2023-06-10T06:48:34;31.50;26.50
38239;DHT22;24035;48.900;9.188;2023-06-10T06:51:00;31.40;24.80
38239;DHT22;24035;48.900;9.188;2023-06-10T06:53:26;30.00;24.30
38239;DHT22;24035;48.900;9.188;2023-06-10T06:55:51;28.90;22.80
38239;DHT22;24035;48.900;9.188;2023-06-10T06:58:17;28.70;24.90
38239;DHT22;24035;48.900;9.188;2023-06-10T07:00:43;28.70;22.40
38239;DHT22;24035;48.900;9.188;2023-06-10T07:03:08;28.50;22.80
38239;DHT22;24035;48.900;9.188;2023-06-10T07:05:34;27.60;25.30
38239;DHT22;24035;48.900;9.188;2023-06-10T07:08:00;27.50;25.70
38239;DHT22;24035;48.900;9.188;2023-06-10T07:10:26;27.70;27.80
38239;DHT22;24035;48.900;9.188;2023-06-10T07:12:52;28.70;31.00
38239;DHT22;24035;48.900;9.188;2023-06-10T07:15:18;29.40;30.60
38239;DHT22;24035;48.900;9.188;2023-06-10T07:17:44;29.50;29.70
38239;DHT22;24035;48.900;9.188;2023-06-10T07:20:10;29.80;27.40
38239;DHT22;24035;48.900;9.188;2023-06-10T07:22:36;29.80;29.10
38239;DHT22;24035;48.900;9.188;2023-06-10T07:25:04;28.90;21.80
38239;DHT22;24035;48.900;9.188;2023-06-10T07:27:31;28.50;25.90
38239;DHT22;24035;48.900;9.188;2023-06-10T07:29:56;29.80;31.00
38239;DHT22;24035;48.900;9.188;2023-06-10T07:32:22;30.80;26.70
38239;DHT22;24035;48.900;9.188;2023-06-10T07:34:50;30.80;25.70
38239;DHT22;24035;48.900;9.188;2023-06-10T07:37:16;29.80;24.30
38239;DHT22;24035;48.900;9.188;2023-06-10T07:39:42;30.00;26.80
38239;DHT22;24035;48.900;9.188;2023-06-10T07:42:08;30.70;26.30
38239;DHT22;24035;48.900;9.188;2023-06-10T07:44:34;30.70;25.30
38239;DHT22;24035;48.900;9.188;2023-06-10T07:47:00;29.70;22.70
38239;DHT22;24035;48.900;9.188;2023-06-10T07:49:25;28.00;22.60
38239;DHT22;24035;48.900;9.188;2023-06-10T07:51:54;28.50;25.30
38239;DHT22;24035;48.900;9.188;2023-06-10T07:54:21;29.30;29.90
38239;DHT22;24035;48.900;9.188;2023-06-10T07:56:46;30.00;28.00
38239;DHT22;24035;48.900;9.188;2023-06-10T07:59:13;31.00;28.20
38239;DHT22;24035;48.900;9.188;2023-06-10T08:01:39;31.80;31.10
38239;DHT22;24035;48.900;9.188;2023-06-10T08:04:06;32.60;28.30
38239;DHT22;24035;48.900;9.188;2023-06-10T08:06:31;30.60;21.20
38239;DHT22;24035;48.900;9.188;2023-06-10T08:08:57;29.50;23.20
38239;DHT22;24035;48.900;9.188;2023-06-10T08:11:23;29.90;23.30
38239;DHT22;24035;48.900;9.188;2023-06-10T08:13:49;30.50;26.10
38239;DHT22;24035;48.900;9.188;2023-06-10T08:16:14;31.10;27.40
38239;DHT22;24035;48.900;9.188;2023-06-10T08:25:24;30.60;25.00
38239;DHT22;24035;48.900;9.188;2023-06-10T08:27:50;31.30;26.10
38239;DHT22;24035;48.900;9.188;2023-06-10T08:30:17;30.40;22.20
38239;DHT22;24035;48.900;9.188;2023-06-10T08:32:43;30.90;25.80
38239;DHT22;24035;48.900;9.188;2023-06-10T08:35:09;30.30;25.30
38239;DHT22;24035;48.900;9.188;2023-06-10T08:37:35;30.50;25.90
38239;DHT22;24035;48.900;9.188;2023-06-10T08:40:00;31.00;25.00
38239;DHT22;24035;48.900;9.188;2023-06-10T08:43:08;31.30;24.20
38239;DHT22;24035;48.900;9.188;2023-06-10T08:45:36;31.50;23.30
38239;DHT22;24035;48.900;9.188;2023-06-10T08:48:03;30.90;20.70
38239;DHT22;24035;48.900;9.188;2023-06-10T08:50:36;28.80;16.90
38239;DHT22;24035;48.900;9.188;2023-06-10T08:53:05;29.10;23.40
38239;DHT22;24035;48.900;9.188;2023-06-10T08:55:36;29.70;24.90
38239;DHT22;24035;48.900;9.188;2023-06-10T08:58:03;29.70;28.20
38239;DHT22;24035;48.900;9.188;2023-06-10T09:00:31;30.10;26.90
38239;DHT22;24035;48.900;9.188;2023-06-10T09:02:58;30.60;26.20
38239;DHT22;24035;48.900;9.188;2023-06-10T09:05:24;30.30;23.60
38239;DHT22;24035;48.900;9.188;2023-06-10T09:07:52;30.90;30.50
38239;DHT22;24035;48.900;9.188;2023-06-10T09:10:17;30.40;13.10
38239;DHT22;24035;48.900;9.188;2023-06-10T09:12:44;30.20;17.50
38239;DHT22;24035;48.900;9.188;2023-06-10T09:15:10;29.80;14.00
38239;DHT22;24035;48.900;9.188;2023-06-10T09:17:38;29.20;15.80
38239;DHT22;24035;48.900;9.188;2023-06-10T09:20:07;28.80;15.70
38239;DHT22;24035;48.900;9.188;2023-06-10T09:22:34;28.30;15.50
38239;DHT22;24035;48.900;9.188;2023-06-10T09:25:08;28.10;15.20
38239;DHT22;24035;48.900;9.188;2023-06-10T09:27:49;27.70;14.40
38239;DHT22;24035;48.900;9.188;2023-06-10T09:30:34;28.00;16.80
38239;DHT22;24035;48.900;9.188;2023-06-10T09:33:02;28.00;15.70
38239;DHT22;24035;48.900;9.188;2023-06-10T09:35:30;27.10;12.30
38239;DHT22;24035;48.900;9.188;2023-06-10T09:37:58;27.20;16.20
38239;DHT22;24035;48.900;9.188;2023-06-10T09:40:24;27.80;19.00
38239;DHT22;24035;48.900;9.188;2023-06-10T09:43:00;28.10;15.20
38239;DHT22;24035;48.900;9.188;2023-06-10T09:45:32;28.90;15.60
38239;DHT22;24035;48.900;9.188;2023-06-10T09:47:58;29.70;17.20
38239;DHT22;24035;48.900;9.188;2023-06-10T09:50:24;30.60;17.40
38239;DHT22;24035;48.900;9.188;2023-06-10T09:52:50;31.20;16.00
38239;DHT22;24035;48.900;9.188;2023-06-10T09:55:17;31.50;13.10
38239;DHT22;24035;48.900;9.188;2023-06-10T09:57:43;31.40;14.20
38239;DHT22;24035;48.900;9.188;2023-06-10T10:00:14;30.80;12.00
38239;DHT22;24035;48.900;9.188;2023-06-10T10:05:15;30.10;10.40
38239;DHT22;24035;48.900;9.188;2023-06-10T10:07:42;30.00;9.00
38239;DHT22;24035;48.900;9.188;2023-06-10T10:10:08;30.50;9.60
38239;DHT22;24035;48.900;9.188;2023-06-10T10:12:36;31.10;13.10
38239;DHT22;24035;48.900;9.188;2023-06-10T10:15:04;31.00;12.10
38239;DHT22;24035;48.900;9.188;2023-06-10T10:17:32;30.90;10.40
38239;DHT22;24035;48.900;9.188;2023-06-10T10:20:04;31.10;10.70
38239;DHT22;24035;48.900;9.188;2023-06-10T10:22:38;31.10;10.20
38239;DHT22;24035;48.900;9.188;2023-06-10T10:25:16;31.30;9.70
38239;DHT22;24035;48.900;9.188;2023-06-10T10:27:51;31.50;11.20
38239;DHT22;24035;48.900;9.188;2023-06-10T10:30:17;30.00;5.80
38239;DHT22;24035;48.900;9.188;2023-06-10T10:35:50;29.30;2.30
38239;DHT22;24035;48.900;9.188;2023-06-10T10:38:16;29.80;8.20
38239;DHT22;24035;48.900;9.188;2023-06-10T10:40:43;30.20;6.60
38239;DHT22;24035;48.900;9.188;2023-06-10T10:43:10;29.60;5.10
38239;DHT22;24035;48.900;9.188;2023-06-10T10:45:37;28.50;1.00
38239;DHT22;24035;48.900;9.188;2023-06-10T10:48:08;27.70;4.50
38239;DHT22;24035;48.900;9.188;2023-06-10T10:50:37;28.50;5.50
38239;DHT22;24035;48.900;9.188;2023-06-10T10:53:05;29.20;7.10
38239;DHT22;24035;48.900;9.188;2023-06-10T10:55:31;29.90;7.70
38239;DHT22;24035;48.900;9.188;2023-06-10T10:58:07;30.50;10.10
38239;DHT22;24035;48.900;9.188;2023-06-10T11:00:35;31.10;10.60
38239;DHT22;24035;48.900;9.188;2023-06-10T11:03:06;31.90;12.20
38239;DHT22;24035;48.900;9.188;2023-06-10T11:05:38;32.30;12.10
38239;DHT22;24035;48.900;9.188;2023-06-10T11:08:04;32.30;7.40
38239;DHT22;24035;48.900;9.188;2023-06-10T11:10:35;31.70;6.50
38239;DHT22;24035;48.900;9.188;2023-06-10T11:13:13;31.50;6.10
38239;DHT22;24035;48.900;9.188;2023-06-10T11:15:47;32.00;8.70
38239;DHT22;24035;48.900;9.188;2023-06-10T11:18:34;32.20;6.90
38239;DHT22;24035;48.900;9.188;2023-06-10T11:21:04;32.50;8.20
38239;DHT22;24035;48.900;9.188;2023-06-10T11:26:22;32.50;1.00
38239;DHT22;24035;48.900;9.188;2023-06-10T11:33:54;32.00;1.00
38239;DHT22;24035;48.900;9.188;2023-06-10T11:36:21;32.40;1.00
38239;DHT22;24035;48.900;9.188;2023-06-10T11:38:46;32.70;1.00
38239;DHT22;24035;48.900;9.188;2023-06-10T11:41:14;32.70;1.40
38239;DHT22;24035;48.900;9.188;2023-06-10T11:43:44;32.70;1.00
38239;DHT22;24035;48.900;9.188;2023-06-10T11:46:10;33.40;2.10
38239;DHT22;24035;48.900;9.188;2023-06-10T11:48:36;34.00;4.90
38239;DHT22;24035;48.900;9.188;2023-06-10T11:51:08;33.80;1.40
38239;DHT22;24035;48.900;9.188;2023-06-10T11:53:34;33.50;3.90
38239;DHT22;24035;48.900;9.188;2023-06-10T11:56:00;33.50;1.00
38239;DHT22;24035;48.900;9.188;2023-06-10T11:58:26;33.50;1.00
38239;DHT22;24035;48.900;9.188;2023-06-10T12:00:55;33.30;1.00
38239;DHT22;24035;48.900;9.188;2023-06-10T12:03:24;33.20;1.00
38239;DHT22;24035;48.900;9.188;2023-06-10T12:05:59;32.10;1.00
38239;DHT22;24035;48.900;9.188;2023-06-10T12:08:25;31.50;1.00
38239;DHT22;24035;48.900;9.188;2023-06-10T12:10:52;31.50;1.00
38239;DHT22;24035;48.900;9.188;2023-06-10T12:13:17;32.10;1.00
38239;DHT22;24035;48.900;9.188;2023-06-10T12:15:44;32.30;1.00
38239;DHT22;24035;48.900;9.188;2023-06-10T12:18:19;32.20;1.00
38239;DHT22;24035;48.900;9.188;2023-06-10T12:20:45;32.50;1.00
38239;DHT22;24035;48.900;9.188;2023-06-10T12:23:12;33.00;1.00
38239;DHT22;24035;48.900;9.188;2023-06-10T12:25:38;33.10;1.00
38239;DHT22;24035;48.900;9.188;2023-06-10T12:28:05;33.30;1.00
38239;DHT22;24035;48.900;9.188;2023-06-10T12:30:32;33.20;1.00
38239;DHT22;24035;48.900;9.188;2023-06-10T12:32:58;33.40;1.00
38239;DHT22;24035;48.900;9.188;2023-06-10T12:35:26;32.10;1.00
38239;DHT22;24035;48.900;9.188;2023-06-10T12:38:03;31.00;1.00
38239;DHT22;24035;48.900;9.188;2023-06-10T12:40:39;30.00;1.00
38239;DHT22;24035;48.900;9.188;2023-06-10T12:43:09;29.60;1.00
38239;DHT22;24035;48.900;9.188;2023-06-10T12:45:39;29.10;1.00
38239;DHT22;24035;48.900;9.188;2023-06-10T12:50:32;31.40;8.00
38239;DHT22;24035;48.900;9.188;2023-06-10T12:52:59;31.80;1.00
38239;DHT22;24035;48.900;9.188;2023-06-10T12:55:25;31.10;1.00
38239;DHT22;24035;48.900;9.188;2023-06-10T12:57:51;31.30;1.00
38239;DHT22;24035;48.900;9.188;2023-06-10T13:00:18;31.70;1.00
38239;DHT22;24035;48.900;9.188;2023-06-10T13:02:43;33.00;1.00
38239;DHT22;24035;48.900;9.188;2023-06-10T13:05:09;34.20;1.00
38239;DHT22;24035;48.900;9.188;2023-06-10T13:07:35;35.00;1.00
38239;DHT22;24035;48.900;9.188;2023-06-10T13:10:00;35.10;1.00
38239;DHT22;24035;48.900;9.188;2023-06-10T13:12:27;35.10;1.00
38239;DHT22;24035;48.900;9.188;2023-06-10T13:14:56;34.40;1.00
38239;DHT22;24035;48.900;9.188;2023-06-10T13:17:21;34.20;1.00
38239;DHT22;24035;48.900;9.188;2023-06-10T13:19:47;33.80;1.00
38239;DHT22;24035;48.900;9.188;2023-06-10T13:22:14;33.50;11.00
38239;DHT22;24035;48.900;9.188;2023-06-10T13:24:40;33.80;1.00
38239;DHT22;24035;48.900;9.188;2023-06-10T13:27:06;34.00;1.00
38239;DHT22;24035;48.900;9.188;2023-06-10T13:29:32;33.50;1.00
38239;DHT22;24035;48.900;9.188;2023-06-10T13:31:58;33.70;1.00
38239;DHT22;24035;48.900;9.188;2023-06-10T13:34:24;33.60;1.00
38239;DHT22;24035;48.900;9.188;2023-06-10T13:36:50;32.40;1.00
38239;DHT22;24035;48.900;9.188;2023-06-10T13:39:15;31.20;1.00
38239;DHT22;24035;48.900;9.188;2023-06-10T13:41:41;32.00;1.00
38239;DHT22;24035;48.900;9.188;2023-06-10T13:44:07;33.20;1.00
38239;DHT22;24035;48.900;9.188;2023-06-10T13:46:33;34.10;1.00
38239;DHT22;24035;48.900;9.188;2023-06-10T13:48:59;33.80;1.00
38239;DHT22;24035;48.900;9.188;2023-06-10T13:51:24;32.70;1.00
38239;DHT22;24035;48.900;9.188;2023-06-10T13:53:50;31.10;1.00
38239;DHT22;24035;48.900;9.188;2023-06-10T13:56:18;30.60;1.00
38239;DHT22;24035;48.900;9.188;2023-06-10T13:58:44;31.50;1.00
38239;DHT22;24035;48.900;9.188;2023-06-10T14:01:10;32.80;1.00
38239;DHT22;24035;48.900;9.188;2023-06-10T14:03:36;33.50;1.00
38239;DHT22;24035;48.900;9.188;2023-06-10T14:06:02;34.10;1.00
38239;DHT22;24035;48.900;9.188;2023-06-10T14:08:28;34.80;1.00
38239;DHT22;24035;48.900;9.188;2023-06-10T14:10:54;35.10;1.00
38239;DHT22;24035;48.900;9.188;2023-06-10T14:13:20;34.70;1.00
38239;DHT22;24035;48.900;9.188;2023-06-10T14:15:46;34.70;1.00
38239;DHT22;24035;48.900;9.188;2023-06-10T14:18:12;34.80;1.50
38239;DHT22;24035;48.900;9.188;2023-06-10T14:20:38;35.50;2.60
38239;DHT22;24035;48.900;9.188;2023-06-10T14:23:04;36.40;10.90
38239;DHT22;24035;48.900;9.188;2023-06-10T14:25:30;36.10;13.30
38239;DHT22;24035;48.900;9.188;2023-06-10T14:27:55;34.50;3.30
38239;DHT22;24035;48.900;9.188;2023-06-10T14:30:21;33.00;1.00
38239;DHT22;24035;48.900;9.188;2023-06-10T14:32:47;31.70;1.00
38239;DHT22;24035;48.900;9.188;2023-06-10T14:35:12;32.10;1.00
38239;DHT22;24035;48.900;9.188;2023-06-10T14:37:38;32.40;1.00
38239;DHT22;24035;48.900;9.188;2023-06-10T14:40:05;32.40;1.00
38239;DHT22;24035;48.900;9.188;2023-06-10T14:42:31;31.20;1.00
38239;DHT22;24035;48.900;9.188;2023-06-10T14:44:58;30.90;1.00
38239;DHT22;24035;48.900;9.188;2023-06-10T14:47:24;31.90;1.00
38239;DHT22;24035;48.900;9.188;2023-06-10T14:49:50;32.80;1.00
38239;DHT22;24035;48.900;9.188;2023-06-10T14:52:16;33.70;13.30
38239;DHT22;24035;48.900;9.188;2023-06-10T14:54:42;34.30;1.00
38239;DHT22;24035;48.900;9.188;2023-06-10T14:57:07;35.60;4.40
38239;DHT22;24035;48.900;9.188;2023-06-10T14:59:34;35.90;7.60
38239;DHT22;24035;48.900;9.188;2023-06-10T15:02:00;36.30;8.40
38239;DHT22;24035;48.900;9.188;2023-06-10T15:04:27;36.50;9.90
38239;DHT22;24035;48.900;9.188;2023-06-10T15:06:53;35.40;9.50
38239;DHT22;24035;48.900;9.188;2023-06-10T15:09:19;35.30;7.20
38239;DHT22;24035;48.900;9.188;2023-06-10T15:11:45;35.40;7.10
38239;DHT22;24035;48.900;9.188;2023-06-10T15:14:11;35.20;4.70
38239;DHT22;24035;48.900;9.188;2023-06-10T15:16:36;34.90;6.30
38239;DHT22;24035;48.900;9.188;2023-06-10T15:19:02;34.60;3.90
38239;DHT22;24035;48.900;9.188;2023-06-10T15:21:28;35.10;5.80
38239;DHT22;24035;48.900;9.188;2023-06-10T15:23:54;35.10;6.00
38239;DHT22;24035;48.900;9.188;2023-06-10T15:26:20;35.30;5.90
38239;DHT22;24035;48.900;9.188;2023-06-10T15:28:46;35.50;5.90
38239;DHT22;24035;48.900;9.188;2023-06-10T15:31:11;35.70;11.20
38239;DHT22;24035;48.900;9.188;2023-06-10T15:33:37;36.30;14.40
38239;DHT22;24035;48.900;9.188;2023-06-10T15:36:03;36.80;13.20
38239;DHT22;24035;48.900;9.188;2023-06-10T15:38:30;36.20;9.70
38239;DHT22;24035;48.900;9.188;2023-06-10T15:40:56;35.50;8.00
38239;DHT22;24035;48.900;9.188;2023-06-10T15:43:22;35.60;10.50
38239;DHT22;24035;48.900;9.188;2023-06-10T15:45:47;36.30;13.60
38239;DHT22;24035;48.900;9.188;2023-06-10T15:48:13;36.20;11.90
38239;DHT22;24035;48.900;9.188;2023-06-10T15:50:39;36.00;14.00
38239;DHT22;24035;48.900;9.188;2023-06-10T15:53:05;36.40;15.20
38239;DHT22;24035;48.900;9.188;2023-06-10T15:55:30;36.80;18.20
38239;DHT22;24035;48.900;9.188;2023-06-10T15:57:56;36.50;17.70
38239;DHT22;24035;48.900;9.188;2023-06-10T16:00:29;36.80;18.70
38239;DHT22;24035;48.900;9.188;2023-06-10T16:02:55;35.80;17.20